createdAt,value
2023-05-05T00:02:00.400Z,20.92
2023-05-05T00:04:33.332Z,22.27
2023-05-05T00:07:06.286Z,19.73
2023-05-05T00:09:39.188Z,19.10
2023-05-05T00:12:12.173Z,22.55
2023-05-05T00:14:46.415Z,23.17
2023-05-05T00:17:19.452Z,23.83
2023-05-05T00:19:52.385Z,24.38
2023-05-05T00:22:25.273Z,25.37
2023-05-05T00:24:58.155Z,23.80
2023-05-05T00:27:31.038Z,21.20
2023-05-05T00:30:06.276Z,23.70
2023-05-05T00:32:39.610Z,22.50
2023-05-05T00:35:12.458Z,18.23
2023-05-05T00:37:45.348Z,24.43
2023-05-05T00:40:18.722Z,18.65
2023-05-05T00:42:51.716Z,18.42
2023-05-05T00:45:26.184Z,18.90
2023-05-05T00:48:01.219Z,17.38
2023-05-05T00:50:34.796Z,19.70
2023-05-05T00:53:08.018Z,19.17
2023-05-05T00:55:41.586Z,18.20
2023-05-05T00:58:15.768Z,15.57
2023-05-05T01:00:50.578Z,18.45
2023-05-05T01:03:23.745Z,18.42
2023-05-05T01:06:11.206Z,21.48
2023-05-05T01:08:56.713Z,18.52
2023-05-05T01:11:36.603Z,21.88
2023-05-05T01:14:14.746Z,24.00
2023-05-05T01:16:59.124Z,21.52
2023-05-05T01:20:01.991Z,20.45
2023-05-05T01:22:40.625Z,24.33
2023-05-05T01:25:36.957Z,17.50
2023-05-05T01:28:25.462Z,17.98
2023-05-05T01:31:22.716Z,23.20
2023-05-05T01:34:01.705Z,17.88
2023-05-05T01:36:39.142Z,23.10
2023-05-05T01:39:16.877Z,17.95
2023-05-05T01:41:56.551Z,22.73
2023-05-05T01:44:31.625Z,21.17
2023-05-05T01:47:06.260Z,21.70
2023-05-05T01:49:41.903Z,20.40
2023-05-05T01:52:16.489Z,19.27
2023-05-05T01:54:51.102Z,18.95
2023-05-05T01:57:26.487Z,17.65
2023-05-05T02:00:01.100Z,19.55
2023-05-05T02:02:36.769Z,16.02
2023-05-05T02:05:12.547Z,20.23
2023-05-05T02:07:46.764Z,21.38
2023-05-05T02:10:20.103Z,18.65
2023-05-05T02:12:54.190Z,21.30
2023-05-05T02:15:29.832Z,20.27
2023-05-05T02:18:06.879Z,19.70
2023-05-05T02:20:42.502Z,22.60
2023-05-05T02:23:16.552Z,23.15
2023-05-05T02:25:54.323Z,17.03
2023-05-05T02:28:43.858Z,15.23
2023-05-05T02:31:18.943Z,15.82
2023-05-05T02:33:54.508Z,17.45
2023-05-05T02:36:33.698Z,16.73
2023-05-05T02:39:14.551Z,17.10
2023-05-05T02:41:50.383Z,17.88
2023-05-05T02:44:32.645Z,18.38
2023-05-05T02:47:05.760Z,18.10
2023-05-05T02:49:39.030Z,22.50
2023-05-05T02:52:13.381Z,24.88
2023-05-05T02:54:48.401Z,19.58
2023-05-05T02:57:32.628Z,21.52
2023-05-05T03:00:11.825Z,19.70
2023-05-05T03:02:47.976Z,18.83
2023-05-05T03:05:26.174Z,20.38
2023-05-05T03:08:04.606Z,20.27
2023-05-05T03:10:47.386Z,17.48
2023-05-05T03:13:22.642Z,20.55
2023-05-05T03:15:58.008Z,17.50
2023-05-05T03:18:34.304Z,18.55
2023-05-05T03:21:09.117Z,16.40
2023-05-05T03:23:46.499Z,18.67
2023-05-05T03:26:25.493Z,16.38
2023-05-05T03:28:58.349Z,15.23
2023-05-05T03:31:34.885Z,18.42
2023-05-05T03:34:08.574Z,17.67
2023-05-05T03:36:47.772Z,15.18
2023-05-05T03:39:23.552Z,15.68
2023-05-05T03:41:57.010Z,20.58
2023-05-05T03:44:32.330Z,17.10
2023-05-05T03:47:05.397Z,20.33
2023-05-05T03:49:41.163Z,19.25
2023-05-05T03:52:15.157Z,17.92
2023-05-05T03:54:50.444Z,21.15
2023-05-05T03:57:24.464Z,16.10
2023-05-05T03:59:57.415Z,21.33
2023-05-05T04:02:30.437Z,19.55
2023-05-05T04:05:03.595Z,25.60
2023-05-05T04:07:36.556Z,19.65
2023-05-05T04:10:11.856Z,18.42
2023-05-05T04:12:46.666Z,20.15
2023-05-05T04:15:19.665Z,15.32
2023-05-05T04:17:52.767Z,19.08
2023-05-05T04:20:25.626Z,18.33
2023-05-05T04:22:58.633Z,16.10
2023-05-05T04:25:32.889Z,17.58
2023-05-05T04:28:06.315Z,15.70
2023-05-05T04:30:39.214Z,13.55
2023-05-05T04:33:12.517Z,15.43
2023-05-05T04:35:45.465Z,13.75
2023-05-05T04:38:19.459Z,15.85
2023-05-05T04:40:54.271Z,16.38
2023-05-05T04:43:27.513Z,13.82
2023-05-05T04:46:00.347Z,19.67
2023-05-05T04:48:37.946Z,15.73
2023-05-05T04:51:11.119Z,20.55
2023-05-05T04:53:44.045Z,19.23
2023-05-05T04:56:18.249Z,17.57
2023-05-05T04:58:51.501Z,17.40
2023-05-05T05:01:24.368Z,16.35
2023-05-05T05:03:57.337Z,15.20
2023-05-05T05:06:30.499Z,13.48
2023-05-05T05:09:03.569Z,20.70
2023-05-05T05:11:37.860Z,19.92
2023-05-05T05:14:10.958Z,14.93
2023-05-05T05:16:44.191Z,17.17
2023-05-05T05:19:17.364Z,17.05
2023-05-05T05:21:50.282Z,18.33
2023-05-05T05:24:23.136Z,20.20
2023-05-05T05:26:57.548Z,17.50
2023-05-05T05:29:30.592Z,18.08
2023-05-05T05:32:06.586Z,18.55
2023-05-05T05:34:39.805Z,21.45
2023-05-05T05:37:14.695Z,15.57
2023-05-05T05:39:52.520Z,21.30
2023-05-05T05:42:28.194Z,19.95
2023-05-05T05:45:01.768Z,18.55
2023-05-05T05:47:35.316Z,15.68
2023-05-05T05:50:09.352Z,21.45
2023-05-05T05:52:42.537Z,13.38
2023-05-05T05:55:16.252Z,20.35
2023-05-05T05:57:50.753Z,14.50
2023-05-05T06:00:23.901Z,17.42
2023-05-05T06:03:03.974Z,18.13
2023-05-05T06:05:40.149Z,12.90
2023-05-05T06:08:13.378Z,14.45
2023-05-05T06:10:51.489Z,15.73
2023-05-05T06:13:27.596Z,9.68
2023-05-05T06:16:01.101Z,15.57
2023-05-05T06:18:34.431Z,15.70
2023-05-05T06:21:07.729Z,10.85
2023-05-05T06:23:40.604Z,10.13
2023-05-05T06:26:13.733Z,16.40
2023-05-05T06:28:48.016Z,9.40
2023-05-05T06:31:21.121Z,15.23
2023-05-05T06:33:54.142Z,10.02
2023-05-05T06:36:28.123Z,12.88
2023-05-05T06:39:01.000Z,18.98
2023-05-05T06:41:33.839Z,11.65
2023-05-05T06:44:08.552Z,12.07
2023-05-05T06:46:43.588Z,12.18
2023-05-05T06:49:16.552Z,7.82
2023-05-05T06:51:49.569Z,11.75
2023-05-05T06:54:24.431Z,12.48
2023-05-05T06:56:59.459Z,11.10
2023-05-05T06:59:33.914Z,13.30
2023-05-05T07:02:07.332Z,16.55
2023-05-05T07:04:41.528Z,13.77
2023-05-05T07:07:14.412Z,9.25
2023-05-05T07:09:48.781Z,13.65
2023-05-05T07:12:21.914Z,13.38
2023-05-05T07:14:56.334Z,11.48
2023-05-05T07:17:29.183Z,10.95
2023-05-05T07:20:02.020Z,14.38
2023-05-05T07:22:34.889Z,11.52
2023-05-05T07:25:09.063Z,11.85
2023-05-05T07:27:42.006Z,12.10
2023-05-05T07:30:18.843Z,9.10
2023-05-05T07:32:52.673Z,11.63
2023-05-05T07:35:26.408Z,10.57
2023-05-05T07:37:59.448Z,8.80
2023-05-05T07:40:33.858Z,6.90
2023-05-05T07:43:07.066Z,9.85
2023-05-05T07:45:41.484Z,11.05
2023-05-05T07:48:14.371Z,8.32
2023-05-05T07:50:47.297Z,10.02
2023-05-05T07:53:20.205Z,10.27
2023-05-05T07:55:53.100Z,6.80
2023-05-05T07:58:26.110Z,7.13
2023-05-05T08:01:01.353Z,9.57
2023-05-05T08:03:34.410Z,10.15
2023-05-05T08:06:09.562Z,8.93
2023-05-05T08:08:43.057Z,8.07
2023-05-05T08:11:16.557Z,8.10
2023-05-05T08:13:49.801Z,6.93
2023-05-05T08:18:57.177Z,8.13
2023-05-05T08:21:30.059Z,5.38
2023-05-05T08:24:03.111Z,9.77
2023-05-05T08:26:35.965Z,11.75
2023-05-05T08:29:09.047Z,9.50
2023-05-05T08:34:16.046Z,6.82
2023-05-05T08:36:50.410Z,11.18
2023-05-05T08:39:23.440Z,5.10
2023-05-05T08:44:29.368Z,4.50
2023-05-05T08:49:43.889Z,3.50
2023-05-05T08:52:19.482Z,5.55
2023-05-05T08:54:58.263Z,4.25
2023-05-05T08:57:40.732Z,4.90
2023-05-05T09:00:15.250Z,8.10
2023-05-05T09:02:50.178Z,5.03
2023-05-05T09:05:23.698Z,4.90
2023-05-05T09:07:56.615Z,4.63
2023-05-05T09:10:30.194Z,5.88
2023-05-05T09:13:05.421Z,3.80
2023-05-05T09:15:39.050Z,4.80
2023-05-05T09:18:13.682Z,4.07
2023-05-05T09:20:46.685Z,4.53
2023-05-05T09:23:21.114Z,5.63
2023-05-05T09:26:05.460Z,6.18
2023-05-05T09:28:38.542Z,3.72
2023-05-05T09:31:16.176Z,3.67
2023-05-05T09:33:51.053Z,3.17
2023-05-05T09:36:43.031Z,3.05
2023-05-05T09:39:17.957Z,7.40
2023-05-05T09:41:50.990Z,5.28
2023-05-05T09:44:34.794Z,6.03
2023-05-05T09:47:18.130Z,5.30
2023-05-05T09:50:00.292Z,4.82
2023-05-05T09:52:33.266Z,4.68
2023-05-05T09:55:07.012Z,6.47
2023-05-05T09:57:39.994Z,6.93
2023-05-05T10:00:14.695Z,6.78
2023-05-05T10:02:47.747Z,5.63
2023-05-05T10:05:22.320Z,7.07
2023-05-05T10:07:55.322Z,7.50
2023-05-05T10:10:29.088Z,6.32
2023-05-05T10:13:02.745Z,7.47
2023-05-05T10:15:35.769Z,6.82
2023-05-05T10:18:08.919Z,6.50
2023-05-05T10:20:44.303Z,7.13
2023-05-05T10:23:20.555Z,7.03
2023-05-05T10:26:00.671Z,13.60
2023-05-05T10:28:35.206Z,13.73
2023-05-05T10:31:25.251Z,14.23
2023-05-05T10:34:04.833Z,9.30
2023-05-05T10:36:40.053Z,10.40
2023-05-05T10:39:16.232Z,7.05
2023-05-05T10:41:49.467Z,8.05
2023-05-05T10:44:22.890Z,6.72
2023-05-05T10:46:55.841Z,4.88
2023-05-05T10:49:38.854Z,5.47
2023-05-05T10:52:22.145Z,5.47
2023-05-05T10:55:04.028Z,8.27
2023-05-05T10:57:41.637Z,5.80
2023-05-05T11:00:51.369Z,8.70
2023-05-05T11:03:24.640Z,6.13
2023-05-05T11:06:18.274Z,7.80
2023-05-05T11:08:52.962Z,16.38
2023-05-05T11:12:04.593Z,9.70
2023-05-05T11:14:37.469Z,9.05
2023-05-05T11:17:45.882Z,6.38
2023-05-05T11:20:18.782Z,7.10
2023-05-05T11:23:24.395Z,6.53
2023-05-05T11:25:59.393Z,4.22
2023-05-05T11:28:32.808Z,5.35
2023-05-05T11:31:19.921Z,5.78
2023-05-05T11:33:53.060Z,10.15
2023-05-05T11:36:40.773Z,8.07
2023-05-05T11:39:24.810Z,5.72
2023-05-05T11:42:24.468Z,8.77
2023-05-05T11:44:57.734Z,8.32
2023-05-05T11:47:34.119Z,8.73
2023-05-05T11:50:18.523Z,5.82
2023-05-05T11:52:51.416Z,8.15
2023-05-05T11:55:24.307Z,9.18
2023-05-05T11:57:58.506Z,8.15
2023-05-05T12:00:35.174Z,5.53
2023-05-05T12:03:08.817Z,9.00
2023-05-05T12:05:42.225Z,7.55
2023-05-05T12:08:15.461Z,12.68
2023-05-05T12:13:22.447Z,6.30
2023-05-05T12:15:55.623Z,5.18
2023-05-05T12:21:01.438Z,6.90
2023-05-05T12:23:39.091Z,7.68
2023-05-05T12:26:26.373Z,5.80
2023-05-05T12:29:01.728Z,10.48
2023-05-05T12:31:36.198Z,11.18
2023-05-05T12:34:11.214Z,7.00
2023-05-05T12:36:44.575Z,8.05
2023-05-05T12:39:17.558Z,9.55
2023-05-05T12:41:50.989Z,11.52
2023-05-05T12:44:25.195Z,8.32
2023-05-05T12:46:59.273Z,7.82
2023-05-05T12:49:34.118Z,6.72
2023-05-05T12:52:07.944Z,31.10
2023-05-05T12:54:54.843Z,7.30
2023-05-05T12:57:28.071Z,4.47
2023-05-05T13:00:13.831Z,6.32
2023-05-05T13:02:46.792Z,13.63
2023-05-05T13:05:30.660Z,6.80
2023-05-05T13:08:03.582Z,7.47
2023-05-05T13:10:37.354Z,4.18
2023-05-05T13:13:10.419Z,10.98
2023-05-05T13:15:44.882Z,5.68
2023-05-05T13:18:17.757Z,5.70
2023-05-05T13:20:50.754Z,30.48
2023-05-05T13:23:24.663Z,9.77
2023-05-05T13:25:58.653Z,16.75
2023-05-05T13:28:31.675Z,6.80
2023-05-05T13:31:06.119Z,8.23
2023-05-05T13:33:38.943Z,12.57
2023-05-05T13:36:11.872Z,7.53
2023-05-05T13:38:44.765Z,8.98
2023-05-05T13:41:17.710Z,7.53
2023-05-05T13:43:51.344Z,8.93
2023-05-05T13:46:25.554Z,10.07
2023-05-05T13:48:58.595Z,6.70
2023-05-05T13:51:31.474Z,7.72
2023-05-05T13:54:04.668Z,6.15
2023-05-05T13:56:37.793Z,10.02
2023-05-05T13:59:10.730Z,10.85
2023-05-05T14:01:44.943Z,8.95
2023-05-05T14:04:17.845Z,9.13
2023-05-05T14:06:50.745Z,7.07
2023-05-05T14:09:23.908Z,10.68
2023-05-05T14:11:56.893Z,7.70
2023-05-05T14:14:30.471Z,12.88
2023-05-05T14:17:04.927Z,9.60
2023-05-05T14:19:37.826Z,7.35
2023-05-05T14:22:10.998Z,6.63
2023-05-05T14:24:43.887Z,10.00
2023-05-05T14:27:16.995Z,6.38
2023-05-05T14:29:49.902Z,7.25
2023-05-05T14:32:24.130Z,8.77
2023-05-05T14:34:57.353Z,12.07
2023-05-05T14:37:30.261Z,7.05
2023-05-05T14:40:05.529Z,7.90
2023-05-05T14:42:38.774Z,7.03
2023-05-05T14:45:12.640Z,9.57
2023-05-05T14:47:46.896Z,5.97
2023-05-05T14:50:20.048Z,7.72
2023-05-05T14:52:53.079Z,6.10
2023-05-05T14:55:26.077Z,9.52
2023-05-05T14:57:58.947Z,7.90
2023-05-05T15:00:31.796Z,7.65
2023-05-05T15:03:06.071Z,6.00
2023-05-05T15:05:39.052Z,7.03
2023-05-05T15:08:12.533Z,8.57
2023-05-05T15:13:18.436Z,4.18
2023-05-05T15:15:51.525Z,4.97
2023-05-05T15:18:26.031Z,7.97
2023-05-05T15:20:58.976Z,7.90
2023-05-05T15:23:31.939Z,7.78
2023-05-05T15:26:04.905Z,5.85
2023-05-05T15:28:37.958Z,12.05
2023-05-05T15:31:11.049Z,10.40
2023-05-05T15:33:48.489Z,9.75
2023-05-05T15:36:22.767Z,9.75
2023-05-05T15:38:55.838Z,5.43
2023-05-05T15:41:29.653Z,7.50
2023-05-05T15:44:03.285Z,7.82
2023-05-05T15:46:36.222Z,7.28
2023-05-05T15:49:10.729Z,8.43
2023-05-05T15:51:43.565Z,11.02
2023-05-05T15:54:16.463Z,5.85
2023-05-05T15:56:49.359Z,7.90
2023-05-05T15:59:22.169Z,7.80
2023-05-05T16:01:55.044Z,5.07
2023-05-05T16:04:29.435Z,19.55
2023-05-05T16:07:03.308Z,5.57
2023-05-05T16:09:36.438Z,5.65
2023-05-05T16:12:09.347Z,5.53
2023-05-05T16:14:42.230Z,16.92
2023-05-05T16:17:15.140Z,4.53
2023-05-05T16:19:49.445Z,6.68
2023-05-05T16:22:22.277Z,6.47
2023-05-05T16:24:55.104Z,14.52
2023-05-05T16:27:27.957Z,11.57
2023-05-05T16:30:00.803Z,9.13
2023-05-05T16:32:33.690Z,5.40
2023-05-05T16:35:09.236Z,10.27
2023-05-05T16:37:42.425Z,5.57
2023-05-05T16:40:15.507Z,10.18
2023-05-05T16:42:48.383Z,10.35
2023-05-05T16:45:21.496Z,6.20
2023-05-05T16:47:55.468Z,10.80
2023-05-05T16:50:29.789Z,5.90
2023-05-05T16:53:02.624Z,7.82
2023-05-05T16:55:35.616Z,6.32
2023-05-05T16:58:08.498Z,6.00
2023-05-05T17:00:41.365Z,6.40
2023-05-05T17:03:14.365Z,6.88
2023-05-05T17:05:50.403Z,8.02
2023-05-05T17:08:23.365Z,7.38
2023-05-05T17:10:56.252Z,9.05
2023-05-05T17:13:29.336Z,8.10
2023-05-05T17:16:02.277Z,7.00
2023-05-05T17:18:35.173Z,6.40
2023-05-05T17:21:09.341Z,4.72
2023-05-05T17:23:42.184Z,6.45
2023-05-05T17:26:15.015Z,9.15
2023-05-05T17:28:47.878Z,9.82
2023-05-05T17:31:21.073Z,18.35
2023-05-05T17:33:54.013Z,6.05
2023-05-05T17:36:28.300Z,6.55
2023-05-05T17:39:01.165Z,7.18
2023-05-05T17:41:33.984Z,5.70
2023-05-05T17:44:06.801Z,8.02
2023-05-05T17:46:40.364Z,9.00
2023-05-05T17:49:13.199Z,9.13
2023-05-05T17:51:47.416Z,7.22
2023-05-05T17:54:20.379Z,7.78
2023-05-05T17:56:53.240Z,5.32
2023-05-05T17:59:26.250Z,6.20
2023-05-05T18:01:59.551Z,8.95
2023-05-05T18:04:32.824Z,12.48
2023-05-05T18:07:07.574Z,8.70
2023-05-05T18:09:40.453Z,9.95
2023-05-05T18:12:13.332Z,9.27
2023-05-05T18:14:46.258Z,18.63
2023-05-05T18:17:19.072Z,20.40
2023-05-05T18:19:51.948Z,16.63
2023-05-05T18:22:26.164Z,16.42
2023-05-05T18:24:59.791Z,19.77
2023-05-05T18:30:07.720Z,8.32
2023-05-05T18:32:40.719Z,12.93
2023-05-05T18:35:13.624Z,11.07
2023-05-05T18:37:47.838Z,9.50
2023-05-05T18:40:20.907Z,9.93
2023-05-05T18:42:53.712Z,10.00
2023-05-05T18:45:26.751Z,9.50
2023-05-05T18:48:01.363Z,5.90
2023-05-05T18:50:38.226Z,9.65
2023-05-05T18:53:14.796Z,9.70
2023-05-05T18:55:47.926Z,8.38
2023-05-05T18:58:21.344Z,19.25
2023-05-05T19:00:54.780Z,23.83
2023-05-05T19:03:27.838Z,21.95
2023-05-05T19:06:01.525Z,20.15
2023-05-05T19:08:35.976Z,20.02
2023-05-05T19:11:08.895Z,21.23
2023-05-05T19:13:41.963Z,21.58
2023-05-05T19:16:15.079Z,12.32
2023-05-05T19:18:47.952Z,11.93
2023-05-05T19:21:20.877Z,10.10
2023-05-05T19:23:55.094Z,9.73
2023-05-05T19:26:28.200Z,10.20
2023-05-05T19:29:01.181Z,11.48
2023-05-05T19:31:34.152Z,11.02
2023-05-05T19:34:07.105Z,9.23
2023-05-05T19:36:40.017Z,9.63
2023-05-05T19:39:15.878Z,12.32
2023-05-05T19:41:48.849Z,9.63
2023-05-05T19:44:22.844Z,10.65
2023-05-05T19:46:55.745Z,12.23
2023-05-05T19:49:28.702Z,14.23
2023-05-05T19:52:01.942Z,13.52
2023-05-05T19:54:37.204Z,12.30
2023-05-05T19:57:10.398Z,13.52
2023-05-05T19:59:43.268Z,10.80
2023-05-05T20:02:18.129Z,12.43
2023-05-05T20:04:51.142Z,11.07
2023-05-05T20:07:24.122Z,9.48
2023-05-05T20:10:00.463Z,10.07
2023-05-05T20:12:33.430Z,9.15
2023-05-05T20:15:07.370Z,9.30
2023-05-05T20:17:40.481Z,14.02
2023-05-05T20:20:16.181Z,10.57
2023-05-05T20:22:50.212Z,10.35
2023-05-05T20:25:24.460Z,14.18
2023-05-05T20:27:57.412Z,9.20
2023-05-05T20:30:30.227Z,12.68
2023-05-05T20:33:03.277Z,6.83
2023-05-05T20:35:36.322Z,13.25
2023-05-05T20:38:09.823Z,11.90
2023-05-05T20:40:44.034Z,8.45
2023-05-05T20:43:16.980Z,8.98
2023-05-05T20:45:49.796Z,13.50
2023-05-05T20:48:22.669Z,9.60
2023-05-05T20:50:58.872Z,7.20
2023-05-05T20:53:31.800Z,8.48
2023-05-05T20:56:08.965Z,8.65
2023-05-05T20:58:42.420Z,9.05
2023-05-05T21:01:15.403Z,12.98
2023-05-05T21:03:48.298Z,11.68
2023-05-05T21:06:21.175Z,13.70
2023-05-05T21:08:53.969Z,8.87
2023-05-05T21:11:28.248Z,11.10
2023-05-05T21:14:01.133Z,8.43
2023-05-05T21:16:34.058Z,11.57
2023-05-05T21:19:06.984Z,7.05
2023-05-05T21:21:39.813Z,7.03
2023-05-05T21:24:13.883Z,8.10
2023-05-05T21:26:48.107Z,6.65
2023-05-05T21:29:21.052Z,9.05
2023-05-05T21:31:54.276Z,9.10
2023-05-05T21:34:27.162Z,9.15
2023-05-05T21:37:00.149Z,9.50
2023-05-05T21:39:33.589Z,11.95
2023-05-05T21:42:07.882Z,8.27
2023-05-05T21:44:40.721Z,7.97
2023-05-05T21:47:13.526Z,10.73
2023-05-05T21:49:46.435Z,8.93
2023-05-05T21:52:19.350Z,6.45
2023-05-05T21:54:52.188Z,11.82
2023-05-05T21:57:26.648Z,8.63
2023-05-05T21:59:59.530Z,7.25
2023-05-05T22:02:33.373Z,7.10
2023-05-05T22:05:07.300Z,8.82
2023-05-05T22:07:40.749Z,16.25
2023-05-05T22:10:13.598Z,7.40
2023-05-05T22:12:48.027Z,8.50
2023-05-05T22:15:25.365Z,10.65
2023-05-05T22:17:58.481Z,9.07
2023-05-05T22:20:31.449Z,10.55
2023-05-05T22:23:04.276Z,10.73
2023-05-05T22:25:37.156Z,11.60
2023-05-05T22:28:11.521Z,11.07
2023-05-05T22:30:44.395Z,12.57
2023-05-05T22:33:17.555Z,14.13
2023-05-05T22:35:50.385Z,12.18
2023-05-05T22:38:23.314Z,15.10
2023-05-05T22:40:56.138Z,13.83
2023-05-05T22:43:30.474Z,15.67
2023-05-05T22:46:05.924Z,16.63
2023-05-05T22:48:38.831Z,14.13
2023-05-05T22:51:11.670Z,16.38
2023-05-05T22:53:44.562Z,15.07
2023-05-05T22:56:17.743Z,16.37
2023-05-05T22:58:51.982Z,14.05
2023-05-05T23:01:25.074Z,11.38
2023-05-05T23:03:58.019Z,12.63
2023-05-05T23:06:32.163Z,8.70
2023-05-05T23:09:05.153Z,11.15
2023-05-05T23:11:37.943Z,7.50
2023-05-05T23:14:12.165Z,8.93
2023-05-05T23:16:45.013Z,9.80
2023-05-05T23:19:17.930Z,9.40
2023-05-05T23:21:53.651Z,10.15
2023-05-05T23:24:26.741Z,12.32
2023-05-05T23:27:02.177Z,11.03
2023-05-05T23:29:36.401Z,8.50
2023-05-05T23:32:09.409Z,7.75
2023-05-05T23:34:42.357Z,7.68
2023-05-05T23:37:15.318Z,8.00
2023-05-05T23:39:48.166Z,7.78
2023-05-05T23:42:21.209Z,12.13
2023-05-05T23:45:01.017Z,6.47
2023-05-05T23:47:35.097Z,8.35
2023-05-05T23:50:11.525Z,6.22
2023-05-05T23:52:45.343Z,7.57
2023-05-05T23:57:53.020Z,7.13
